Time;durP1;ratioP1;P1;durP2;ratioP2;P2;SDS_P1;SDS_P2;PMS_P1;PMS_P2;Temp;Humidity;BMP_temperature;BMP_pressure;BME280_temperature;BME280_humidity;BME280_pressure;Samples;Min_cycle;Max_cycle;Signal;HPM_P1;HPM_P2
2023/12/13 00:01:40;;;;;;;7.38;6.50;;;8.50;99.90;;;;;;5134015;27;20601;-77
2023/12/13 00:04:05;;;;;;;7.65;5.90;;;8.50;99.90;;;;;;5134414;27;20094;-78
2023/12/13 00:06:31;;;;;;;6.80;6.03;;;8.50;99.90;;;;;;5133873;27;20460;-78
2023/12/13 00:08:57;;;;;;;9.80;6.35;;;8.50;99.90;;;;;;5134406;27;20114;-78
2023/12/13 00:11:23;;;;;;;8.40;6.53;;;8.50;99.90;;;;;;5133975;27;20081;-77
2023/12/13 00:13:49;;;;;;;6.80;6.20;;;8.50;99.90;;;;;;5134006;27;20023;-77
2023/12/13 00:16:15;;;;;;;6.22;5.65;;;8.50;99.90;;;;;;5134322;27;20027;-77
2023/12/13 00:18:41;;;;;;;8.25;6.72;;;8.50;99.90;;;;;;5133486;27;20367;-76
2023/12/13 00:21:08;;;;;;;6.18;5.57;;;8.50;99.90;;;;;;5133846;27;20440;-78
2023/12/13 00:23:34;;;;;;;6.75;5.05;;;8.40;99.90;;;;;;5133441;27;20023;-78
2023/12/13 00:26:00;;;;;;;6.40;5.60;;;8.40;99.90;;;;;;5133661;27;20106;-76
2023/12/13 00:28:25;;;;;;;7.80;5.30;;;8.50;99.90;;;;;;5133530;27;20041;-78
2023/12/13 00:30:51;;;;;;;6.72;5.57;;;8.40;99.90;;;;;;5133955;27;20372;-75
2023/12/13 00:33:17;;;;;;;6.10;5.38;;;8.40;99.90;;;;;;5133840;27;20019;-77
2023/12/13 00:35:42;;;;;;;7.57;5.03;;;8.40;99.90;;;;;;5132907;27;20066;-77
2023/12/13 00:38:09;;;;;;;5.50;5.00;;;8.40;99.90;;;;;;5133203;27;20027;-77
2023/12/13 00:40:34;;;;;;;4.63;4.15;;;8.40;99.90;;;;;;5131329;27;20055;-77
2023/12/13 00:43:01;;;;;;;5.53;4.95;;;8.40;99.90;;;;;;5132673;27;20417;-77
2023/12/13 00:45:27;;;;;;;7.10;5.28;;;8.40;99.90;;;;;;5133025;27;20476;-78
2023/12/13 00:47:52;;;;;;;5.50;4.72;;;8.40;99.90;;;;;;5133235;27;20080;-77
2023/12/13 00:50:18;;;;;;;5.35;4.70;;;8.30;99.90;;;;;;5133109;27;20109;-78
2023/12/13 00:52:44;;;;;;;8.43;5.15;;;8.30;99.90;;;;;;5132700;27;20402;-78
2023/12/13 00:55:09;;;;;;;5.95;5.30;;;8.30;99.90;;;;;;5133776;27;20080;-77
2023/12/13 00:57:35;;;;;;;5.00;4.50;;;8.30;99.90;;;;;;5133078;27;20111;-77
2023/12/13 01:00:01;;;;;;;6.30;4.47;;;8.40;99.90;;;;;;5115001;27;20027;-77
2023/12/13 01:02:28;;;;;;;5.22;4.40;;;8.30;99.90;;;;;;5133235;27;20031;-77
2023/12/13 01:04:54;;;;;;;5.65;4.68;;;8.30;99.90;;;;;;5133085;27;20518;-78
2023/12/13 01:07:19;;;;;;;4.90;4.40;;;8.30;99.90;;;;;;5133834;27;20023;-78
2023/12/13 01:09:45;;;;;;;5.05;4.50;;;8.30;99.90;;;;;;5133478;27;20350;-78
2023/12/13 01:12:13;;;;;;;5.60;4.30;;;8.40;99.90;;;;;;5133691;27;20110;-78
2023/12/13 01:14:38;;;;;;;4.45;3.97;;;8.30;99.90;;;;;;5132978;27;20031;-78
2023/12/13 01:17:04;;;;;;;5.85;4.32;;;8.30;99.90;;;;;;5133522;27;20113;-78
2023/12/13 01:19:30;;;;;;;6.68;4.43;;;8.30;99.90;;;;;;5133328;27;20115;-76
2023/12/13 01:21:56;;;;;;;5.75;4.50;;;8.30;99.90;;;;;;5115298;27;20028;-77
2023/12/13 01:24:22;;;;;;;8.88;4.25;;;8.30;99.90;;;;;;5133086;27;20066;-77
2023/12/13 01:26:47;;;;;;;5.22;4.57;;;8.30;99.90;;;;;;5133739;27;20105;-77
2023/12/13 01:29:13;;;;;;;4.90;4.10;;;8.30;99.90;;;;;;5133791;27;20039;-77
2023/12/13 01:31:39;;;;;;;4.40;4.00;;;8.30;99.90;;;;;;5132885;27;20032;-78
2023/12/13 01:34:06;;;;;;;5.38;4.38;;;8.30;99.90;;;;;;5133239;27;20041;-77
2023/12/13 01:36:32;;;;;;;4.15;3.75;;;8.30;99.90;;;;;;5132451;27;20027;-77
2023/12/13 01:38:57;;;;;;;4.45;3.88;;;8.30;99.90;;;;;;5133113;27;20483;-77
2023/12/13 01:41:23;;;;;;;4.55;3.90;;;8.30;99.90;;;;;;5133154;27;20023;-77
2023/12/13 01:43:49;;;;;;;5.35;4.47;;;8.30;99.90;;;;;;5133704;27;20046;-77
2023/12/13 01:46:16;;;;;;;7.47;4.43;;;8.30;99.90;;;;;;5133431;27;20456;-77
2023/12/13 01:48:43;;;;;;;7.22;4.18;;;8.30;99.90;;;;;;5132571;27;20708;-77
2023/12/13 01:51:10;;;;;;;6.57;4.45;;;8.30;99.90;;;;;;5133180;27;20384;-77
2023/12/13 01:53:37;;;;;;;5.05;4.57;;;8.30;99.90;;;;;;5132544;27;20399;-78
2023/12/13 01:56:06;;;;;;;6.72;4.72;;;8.20;99.90;;;;;;5132994;27;20080;-77
2023/12/13 01:58:36;;;;;;;5.03;4.10;;;8.20;99.90;;;;;;5132344;27;20074;-77
2023/12/13 02:01:03;;;;;;;4.70;4.30;;;8.20;99.90;;;;;;5133039;27;20098;-76
2023/12/13 02:03:29;;;;;;;5.07;4.00;;;8.20;99.90;;;;;;5132126;27;20023;-77
2023/12/13 02:05:55;;;;;;;7.53;4.63;;;8.20;99.90;;;;;;5114676;27;20344;-76
2023/12/13 02:08:22;;;;;;;5.50;4.72;;;8.20;99.90;;;;;;5132805;27;20024;-76
2023/12/13 02:10:49;;;;;;;5.72;4.20;;;8.20;99.90;;;;;;5131494;27;20019;-76
2023/12/13 02:13:16;;;;;;;5.47;4.47;;;8.20;99.90;;;;;;5132939;27;20027;-77
2023/12/13 02:15:45;;;;;;;4.38;3.97;;;8.20;99.90;;;;;;5132425;27;20476;-76
2023/12/13 02:18:14;;;;;;;4.28;3.92;;;8.20;99.90;;;;;;5133097;27;20035;-76
2023/12/13 02:20:40;;;;;;;4.10;3.70;;;8.20;99.90;;;;;;5114109;27;20031;-76
2023/12/13 02:23:06;;;;;;;4.38;3.97;;;8.20;99.90;;;;;;5133157;27;20027;-76
2023/12/13 02:25:52;;;;;;;4.60;3.83;;;8.20;99.90;;;;;;5131915;27;20126;-77
2023/12/13 02:28:18;;;;;;;4.47;4.07;;;8.20;99.90;;;;;;5132187;27;20106;-77
2023/12/13 02:30:46;;;;;;;5.72;3.75;;;8.20;99.90;;;;;;5131642;27;20051;-77
2023/12/13 02:33:11;;;;;;;3.80;3.50;;;8.20;99.90;;;;;;5132478;27;20015;-77
2023/12/13 02:35:37;;;;;;;4.55;3.58;;;8.20;99.90;;;;;;5131656;27;20047;-78
2023/12/13 02:38:03;;;;;;;5.07;4.00;;;8.20;99.90;;;;;;5132024;27;20433;-78
2023/12/13 02:40:29;;;;;;;3.58;3.20;;;8.20;99.90;;;;;;5131285;27;20031;-77
2023/12/13 02:42:55;;;;;;;3.58;3.28;;;8.20;99.90;;;;;;5132286;27;20140;-76
2023/12/13 02:45:20;;;;;;;3.90;3.60;;;8.20;99.90;;;;;;5132182;27;20352;-77
2023/12/13 02:47:49;;;;;;;4.30;3.83;;;8.20;99.90;;;;;;5131415;27;20102;-77
2023/12/13 02:50:15;;;;;;;5.72;4.20;;;8.20;99.90;;;;;;5131659;27;20460;-77
2023/12/13 02:52:41;;;;;;;4.13;3.72;;;8.20;99.90;;;;;;5112510;27;20033;-77
2023/12/13 02:55:11;;;;;;;4.03;3.63;;;8.20;99.90;;;;;;5131982;27;20019;-77
2023/12/13 02:57:37;;;;;;;5.68;3.50;;;8.30;99.90;;;;;;5113277;27;20054;-78
2023/12/13 03:00:04;;;;;;;3.92;3.53;;;8.30;99.90;;;;;;5132345;27;20115;-78
2023/12/13 03:02:30;;;;;;;7.75;3.30;;;8.20;99.90;;;;;;5131775;27;20421;-78
2023/12/13 03:04:56;;;;;;;4.57;2.97;;;8.20;99.90;;;;;;5131866;27;20020;-78
2023/12/13 03:07:22;;;;;;;5.57;3.65;;;8.20;99.90;;;;;;5132230;27;20436;-77
2023/12/13 03:09:48;;;;;;;5.40;3.22;;;8.30;99.90;;;;;;5131147;27;20640;-77
2023/12/13 03:12:13;;;;;;;4.88;3.22;;;8.30;99.90;;;;;;5131993;27;20030;-78
2023/12/13 03:14:39;;;;;;;3.90;3.10;;;8.30;99.90;;;;;;5131629;27;20030;-78
2023/12/13 03:17:05;;;;;;;5.47;3.35;;;8.30;99.90;;;;;;5131703;27;20030;-78
2023/12/13 03:19:31;;;;;;;3.75;3.03;;;8.20;99.90;;;;;;5131011;27;20072;-79
2023/12/13 03:21:57;;;;;;;3.40;3.10;;;8.30;99.90;;;;;;5132032;28;20055;-78
2023/12/13 03:24:22;;;;;;;4.43;3.03;;;8.20;99.90;;;;;;5131482;28;20023;-78
2023/12/13 03:26:48;;;;;;;4.95;3.28;;;8.20;99.90;;;;;;5130876;28;20074;-78
2023/12/13 03:29:14;;;;;;;2.85;2.65;;;8.20;99.90;;;;;;5131445;28;20035;-78
2023/12/13 03:31:40;;;;;;;7.88;3.13;;;8.20;99.90;;;;;;5112102;28;20035;-78
2023/12/13 03:34:06;;;;;;;6.45;3.05;;;8.20;99.90;;;;;;5135446;28;20026;-78
2023/12/13 03:36:31;;;;;;;3.42;3.15;;;8.20;99.90;;;;;;5131860;28;20404;-78
2023/12/13 03:38:57;;;;;;;4.93;3.22;;;8.20;99.90;;;;;;5131388;28;20333;-77
2023/12/13 03:41:23;;;;;;;3.55;2.83;;;8.10;99.90;;;;;;5131297;28;20109;-77
2023/12/13 03:43:49;;;;;;;4.63;3.33;;;8.10;99.90;;;;;;5112181;28;20031;-77
2023/12/13 03:46:15;;;;;;;6.53;3.30;;;8.00;99.90;;;;;;5131454;28;20163;-77
2023/12/13 03:48:41;;;;;;;3.10;2.80;;;8.00;99.90;;;;;;5130577;28;20032;-77
2023/12/13 03:51:06;;;;;;;4.45;2.70;;;8.00;99.90;;;;;;5112965;28;20051;-77
2023/12/13 03:53:32;;;;;;;2.83;2.58;;;8.00;99.90;;;;;;5130519;28;20019;-77
2023/12/13 03:55:59;;;;;;;3.03;2.55;;;8.00;99.90;;;;;;5131342;28;20321;-78
2023/12/13 03:58:25;;;;;;;4.22;2.53;;;8.00;99.90;;;;;;5131082;27;20149;-77
2023/12/13 04:00:51;;;;;;;5.75;2.20;;;8.10;99.90;;;;;;5112395;28;20046;-77
2023/12/13 04:03:17;;;;;;;2.75;2.30;;;8.10;99.90;;;;;;5131556;28;20031;-76
2023/12/13 04:05:43;;;;;;;4.40;2.00;;;8.10;99.90;;;;;;5133308;28;20028;-77
2023/12/13 04:08:10;;;;;;;6.35;2.35;;;8.10;99.90;;;;;;5133129;28;20047;-76
2023/12/13 04:10:35;;;;;;;5.95;1.73;;;8.10;99.90;;;;;;5146368;28;20069;-79
2023/12/13 04:13:01;;;;;;;3.22;1.70;;;8.10;99.90;;;;;;5130841;28;20459;-78
2023/12/13 04:15:27;;;;;;;1.30;1.20;;;8.10;99.90;;;;;;5131273;28;20020;-78
2023/12/13 04:17:52;;;;;;;2.38;1.58;;;8.20;99.90;;;;;;5133315;27;20701;-78
2023/12/13 04:20:18;;;;;;;2.60;1.40;;;8.20;99.90;;;;;;5134997;27;20023;-78
2023/12/13 04:22:44;;;;;;;1.77;1.30;;;8.10;99.90;;;;;;5134262;27;20027;-78
2023/12/13 04:25:11;;;;;;;4.10;1.35;;;8.10;99.90;;;;;;5135081;27;20046;-78
2023/12/13 04:27:36;;;;;;;2.15;1.27;;;8.10;99.90;;;;;;5134540;27;20026;-78
2023/12/13 04:30:02;;;;;;;4.38;1.33;;;8.10;99.90;;;;;;5115944;27;20031;-77
2023/12/13 04:32:28;;;;;;;4.15;1.27;;;8.10;99.90;;;;;;5134954;27;20064;-77
2023/12/13 04:34:54;;;;;;;2.38;1.05;;;8.00;99.90;;;;;;5134047;27;20107;-78
2023/12/13 04:37:20;;;;;;;1.38;1.10;;;8.00;99.90;;;;;;5134984;27;20069;-78
2023/12/13 04:39:46;;;;;;;3.97;1.40;;;7.90;99.90;;;;;;5134589;27;20416;-78
2023/12/13 04:42:12;;;;;;;2.38;1.30;;;7.80;99.90;;;;;;5115840;27;20108;-78
2023/12/13 04:44:38;;;;;;;2.58;1.30;;;7.80;99.90;;;;;;5133444;27;20019;-77
2023/12/13 04:47:04;;;;;;;2.05;0.95;;;7.70;99.90;;;;;;5134518;27;20122;-77
2023/12/13 04:49:30;;;;;;;2.20;1.45;;;7.70;99.90;;;;;;5115527;27;20046;-76
2023/12/13 04:51:56;;;;;;;1.55;1.17;;;7.70;99.90;;;;;;5133619;27;20034;-76
2023/12/13 04:54:21;;;;;;;3.50;1.20;;;7.60;99.90;;;;;;5134076;27;20024;-78
2023/12/13 04:56:47;;;;;;;3.42;1.58;;;7.60;99.90;;;;;;5133157;27;20457;-77
2023/12/13 04:59:13;;;;;;;2.13;1.45;;;7.60;99.90;;;;;;5133819;27;20051;-76
2023/12/13 05:01:39;;;;;;;4.20;1.40;;;7.50;99.90;;;;;;5133584;27;20114;-78
2023/12/13 05:04:04;;;;;;;2.75;1.05;;;7.50;99.90;;;;;;5133833;27;20096;-78
2023/12/13 05:06:30;;;;;;;1.67;1.25;;;7.50;99.90;;;;;;5133937;27;20069;-78
2023/12/13 05:08:56;;;;;;;2.00;1.40;;;7.40;99.90;;;;;;5114350;27;20110;-76
2023/12/13 05:11:21;;;;;;;5.40;1.45;;;7.40;99.90;;;;;;5133875;27;20019;-76
2023/12/13 05:13:47;;;;;;;1.13;1.02;;;7.40;99.90;;;;;;5132944;27;20098;-76
2023/12/13 05:16:13;;;;;;;1.77;1.10;;;7.40;99.90;;;;;;5133608;27;20099;-76
2023/12/13 05:18:39;;;;;;;2.63;1.17;;;7.30;99.90;;;;;;5133011;27;20433;-77
2023/12/13 05:21:05;;;;;;;1.67;1.20;;;7.30;99.90;;;;;;5133646;27;20046;-76
2023/12/13 05:23:30;;;;;;;3.00;1.30;;;7.30;99.90;;;;;;5133595;27;20106;-76
2023/12/13 05:25:56;;;;;;;1.80;1.33;;;7.30;99.90;;;;;;5132982;27;20091;-77
2023/12/13 05:28:22;;;;;;;1.27;0.98;;;7.40;99.90;;;;;;5132389;27;20095;-76
2023/12/13 05:30:48;;;;;;;3.53;1.10;;;7.40;99.90;;;;;;5114270;27;20023;-76
2023/12/13 05:33:13;;;;;;;1.02;0.93;;;7.40;99.90;;;;;;5133391;27;20508;-76
2023/12/13 05:35:39;;;;;;;3.45;1.10;;;7.50;99.90;;;;;;5133349;27;20035;-77
2023/12/13 05:38:04;;;;;;;1.67;1.10;;;7.50;99.90;;;;;;5133411;27;20506;-76
2023/12/13 05:40:33;;;;;;;6.97;1.20;;;7.50;99.90;;;;;;5133217;27;20019;-78
2023/12/13 05:43:01;;;;;;;1.42;1.00;;;7.50;99.90;;;;;;5132829;27;20203;-76
2023/12/13 05:45:27;;;;;;;1.35;0.90;;;7.50;99.90;;;;;;5133484;27;20075;-77
2023/12/13 05:47:53;;;;;;;2.58;0.90;;;7.50;99.90;;;;;;5132791;27;20039;-77
2023/12/13 05:50:19;;;;;;;2.53;1.00;;;7.50;99.90;;;;;;5133503;27;20343;-76
2023/12/13 05:52:44;;;;;;;3.38;1.45;;;7.40;99.90;;;;;;5132824;27;20452;-78
2023/12/13 05:55:11;;;;;;;1.17;1.10;;;7.30;99.90;;;;;;5133259;27;20098;-77
2023/12/13 05:57:37;;;;;;;1.75;1.00;;;7.30;99.90;;;;;;5133197;27;20027;-77
2023/12/13 06:00:06;;;;;;;1.45;0.80;;;7.20;99.90;;;;;;5132571;27;20474;-77
2023/12/13 06:02:34;;;;;;;3.20;1.20;;;7.10;99.90;;;;;;5132793;27;20074;-77
2023/12/13 06:05:03;;;;;;;2.35;1.00;;;7.10;99.90;;;;;;5132196;27;20276;-77
2023/12/13 06:07:30;;;;;;;2.60;1.27;;;7.00;99.90;;;;;;5132896;27;20106;-77
2023/12/13 06:09:55;;;;;;;1.17;0.90;;;7.00;99.90;;;;;;5131992;27;20031;-77
2023/12/13 06:12:21;;;;;;;4.80;1.45;;;7.00;99.90;;;;;;5132698;27;20019;-78
2023/12/13 06:14:47;;;;;;;1.95;1.20;;;6.90;99.90;;;;;;5113429;27;20023;-78
2023/12/13 06:17:13;;;;;;;5.22;1.30;;;6.90;99.90;;;;;;5132941;27;20375;-78
2023/12/13 06:19:39;;;;;;;3.03;1.45;;;6.80;99.90;;;;;;5132982;27;20024;-78
2023/12/13 06:22:07;;;;;;;6.25;1.45;;;6.80;99.90;;;;;;5132912;27;20025;-78
2023/12/13 06:24:33;;;;;;;2.85;1.20;;;6.80;99.90;;;;;;5133208;27;20110;-77
2023/12/13 06:26:59;;;;;;;2.47;1.40;;;6.70;99.90;;;;;;5132621;27;20132;-78
2023/12/13 06:29:25;;;;;;;2.05;1.48;;;6.70;99.90;;;;;;5132616;27;20122;-77
2023/12/13 06:31:51;;;;;;;4.03;1.30;;;6.70;99.90;;;;;;5132311;27;20077;-77
2023/12/13 06:34:16;;;;;;;1.75;1.20;;;6.60;99.90;;;;;;5113819;27;20476;-77
2023/12/13 06:36:42;;;;;;;5.00;1.27;;;6.60;99.90;;;;;;5132691;27;20051;-78
2023/12/13 06:39:11;;;;;;;2.53;1.38;;;6.60;99.90;;;;;;5132621;27;20031;-77
2023/12/13 06:41:37;;;;;;;3.85;1.50;;;6.60;99.90;;;;;;5132413;27;20391;-77
2023/12/13 06:44:03;;;;;;;2.38;1.52;;;6.60;99.90;;;;;;5131783;27;20128;-77
2023/12/13 06:46:29;;;;;;;3.35;1.30;;;6.50;99.90;;;;;;5132262;27;20027;-78
2023/12/13 06:48:55;;;;;;;2.38;1.20;;;6.50;99.90;;;;;;5131472;27;20031;-77
2023/12/13 06:51:21;;;;;;;2.55;1.20;;;6.50;99.90;;;;;;5132239;27;20031;-78
2023/12/13 06:53:47;;;;;;;3.67;1.30;;;6.50;99.90;;;;;;5131033;27;20026;-78
2023/12/13 06:56:12;;;;;;;2.95;1.17;;;6.50;99.90;;;;;;5131951;27;20077;-78
2023/12/13 06:58:38;;;;;;;2.42;1.20;;;6.40;99.90;;;;;;5131542;27;20159;-77
2023/12/13 07:01:04;;;;;;;3.83;1.13;;;6.40;99.90;;;;;;5131423;27;20019;-77
2023/12/13 07:03:30;;;;;;;2.25;1.27;;;6.40;99.90;;;;;;5131999;27;20096;-77
2023/12/13 07:05:56;;;;;;;3.05;1.30;;;6.40;99.90;;;;;;5131536;27;20378;-77
2023/12/13 07:08:22;;;;;;;1.83;1.13;;;6.40;99.90;;;;;;5131906;27;20110;-77
2023/12/13 07:10:47;;;;;;;4.53;1.40;;;6.40;99.90;;;;;;5112234;27;20092;-77
2023/12/13 07:13:13;;;;;;;3.17;1.48;;;6.30;99.90;;;;;;5131678;27;20019;-77
2023/12/13 07:15:39;;;;;;;2.83;1.70;;;6.30;99.90;;;;;;5131564;27;20030;-77
2023/12/13 07:18:05;;;;;;;1.75;1.38;;;6.30;99.90;;;;;;5131238;27;20023;-78
2023/12/13 07:20:34;;;;;;;2.20;1.48;;;6.20;99.90;;;;;;5131506;27;20031;-78
2023/12/13 07:23:00;;;;;;;1.63;1.30;;;6.20;99.90;;;;;;5131324;28;20034;-77
2023/12/13 07:25:26;;;;;;;5.32;1.80;;;6.20;99.90;;;;;;5113021;28;20016;-77
2023/12/13 07:27:52;;;;;;;3.05;1.42;;;6.10;99.90;;;;;;5131065;28;20102;-77
2023/12/13 07:30:17;;;;;;;2.40;1.20;;;6.10;99.90;;;;;;5131691;28;20111;-77
2023/12/13 07:32:46;;;;;;;2.15;1.20;;;6.00;99.90;;;;;;5132123;28;20148;-76
2023/12/13 07:35:12;;;;;;;2.25;1.20;;;6.00;99.90;;;;;;5132166;28;20073;-78
2023/12/13 07:37:38;;;;;;;4.97;1.40;;;6.00;99.90;;;;;;5132292;28;20409;-77
2023/12/13 07:40:06;;;;;;;2.83;1.20;;;6.00;99.90;;;;;;5130840;28;20058;-76
2023/12/13 07:42:32;;;;;;;4.20;1.48;;;6.00;99.90;;;;;;5131497;28;20082;-77
2023/12/13 07:44:58;;;;;;;2.53;1.38;;;5.90;99.90;;;;;;5130463;28;20019;-76
2023/12/13 07:47:25;;;;;;;3.17;2.20;;;5.90;99.90;;;;;;5131398;28;20019;-77
2023/12/13 07:49:51;;;;;;;3.15;1.73;;;5.80;99.90;;;;;;5130709;28;20039;-77
2023/12/13 07:52:17;;;;;;;2.90;1.67;;;5.80;99.90;;;;;;5133595;27;20019;-76
2023/12/13 07:54:43;;;;;;;2.63;1.40;;;5.80;99.90;;;;;;5135729;27;20023;-76
2023/12/13 07:57:09;;;;;;;4.60;1.75;;;5.80;99.90;;;;;;5116231;27;20391;-76
2023/12/13 07:59:35;;;;;;;4.55;1.85;;;5.70;99.90;;;;;;5135392;27;20400;-77
2023/12/13 08:02:01;;;;;;;2.17;1.55;;;5.70;99.90;;;;;;5134786;27;20039;-77
2023/12/13 08:04:27;;;;;;;6.13;2.20;;;5.70;99.90;;;;;;5116751;27;20023;-78
2023/12/13 08:06:53;;;;;;;5.07;2.00;;;5.60;99.90;;;;;;5135188;27;20102;-77
2023/12/13 08:09:19;;;;;;;3.30;1.90;;;5.60;99.90;;;;;;5135408;27;20039;-77
2023/12/13 08:11:46;;;;;;;4.70;2.20;;;5.60;99.90;;;;;;5134934;27;20489;-78
2023/12/13 08:14:14;;;;;;;4.82;2.28;;;5.50;99.90;;;;;;5134908;27;20019;-77
2023/12/13 08:16:40;;;;;;;3.67;2.38;;;5.50;99.90;;;;;;5134491;27;20092;-77
2023/12/13 08:19:06;;;;;;;4.28;2.70;;;5.50;99.90;;;;;;5134473;27;20087;-78
2023/12/13 08:21:32;;;;;;;4.63;2.65;;;5.50;99.90;;;;;;5116339;27;20019;-78
2023/12/13 08:23:57;;;;;;;5.55;2.95;;;5.50;99.90;;;;;;5134469;27;20061;-78
2023/12/13 08:26:25;;;;;;;7.32;3.08;;;5.50;99.90;;;;;;5135158;27;20023;-76
2023/12/13 08:28:51;;;;;;;6.40;3.60;;;5.40;99.90;;;;;;5134376;27;20080;-78
2023/12/13 08:31:18;;;;;;;6.20;3.13;;;5.40;99.90;;;;;;5134915;27;20127;-78
2023/12/13 08:33:44;;;;;;;4.30;3.30;;;5.40;99.90;;;;;;5134714;27;20023;-76
2023/12/13 08:36:13;;;;;;;8.27;3.33;;;5.30;99.90;;;;;;5133640;27;20090;-76
2023/12/13 08:38:40;;;;;;;4.63;3.75;;;5.30;99.90;;;;;;5134403;27;20116;-77
2023/12/13 08:41:11;;;;;;;5.82;3.83;;;5.30;99.90;;;;;;5133558;27;20072;-77
2023/12/13 08:43:38;;;;;;;5.88;4.03;;;5.30;99.90;;;;;;5115148;27;20027;-77
2023/12/13 08:46:04;;;;;;;8.30;4.57;;;5.30;99.90;;;;;;5115349;27;20033;-76
2023/12/13 08:48:30;;;;;;;6.28;4.10;;;5.20;99.90;;;;;;5133479;27;20031;-77
2023/12/13 08:51:00;;;;;;;7.03;4.28;;;5.30;99.90;;;;;;5133144;27;20031;-77
2023/12/13 08:53:25;;;;;;;8.75;5.05;;;5.30;99.90;;;;;;5134131;27;20023;-76
2023/12/13 08:55:51;;;;;;;13.43;5.43;;;5.30;99.90;;;;;;5133246;27;20020;-77
2023/12/13 08:58:17;;;;;;;7.07;4.55;;;5.30;99.90;;;;;;5133825;27;20080;-77
2023/12/13 09:00:43;;;;;;;9.23;5.55;;;5.30;99.90;;;;;;5134615;27;20032;-77
2023/12/13 09:03:08;;;;;;;10.15;5.40;;;5.40;99.90;;;;;;5145163;27;20054;-78
2023/12/13 09:05:37;;;;;;;8.48;5.18;;;5.40;99.90;;;;;;5156345;27;20031;-77
2023/12/13 09:08:06;;;;;;;6.05;4.93;;;5.40;99.90;;;;;;5157239;27;20039;-75
2023/12/13 09:10:34;;;;;;;10.38;5.10;;;5.40;99.90;;;;;;5153085;27;20110;-77
2023/12/13 09:13:04;;;;;;;7.45;5.10;;;5.50;99.90;;;;;;5132816;27;20091;-76
2023/12/13 09:15:31;;;;;;;7.72;4.97;;;5.60;99.90;;;;;;5133374;27;20121;-78
2023/12/13 09:17:57;;;;;;;9.65;4.88;;;5.60;99.90;;;;;;5132907;27;20024;-78
2023/12/13 09:20:23;;;;;;;11.90;4.68;;;5.60;99.90;;;;;;5133312;27;20087;-78
2023/12/13 09:22:49;;;;;;;8.73;4.50;;;5.60;99.90;;;;;;5133122;27;20094;-76
2023/12/13 09:25:14;;;;;;;11.15;4.38;;;5.70;99.90;;;;;;5132605;27;20429;-78
2023/12/13 09:27:41;;;;;;;6.72;4.78;;;5.60;99.90;;;;;;5133440;27;20031;-78
2023/12/13 09:30:11;;;;;;;6.43;4.50;;;5.70;99.90;;;;;;5133123;27;20023;-77
2023/12/13 09:32:40;;;;;;;7.90;4.20;;;5.70;99.90;;;;;;5133762;27;20119;-78
2023/12/13 09:35:06;;;;;;;6.03;4.38;;;5.70;99.90;;;;;;5132771;27;20023;-77
2023/12/13 09:37:32;;;;;;;7.28;4.10;;;5.70;99.90;;;;;;5133508;27;20076;-77
2023/12/13 09:39:59;;;;;;;10.05;4.47;;;5.70;99.90;;;;;;5132608;27;20055;-78
2023/12/13 09:42:25;;;;;;;6.88;3.65;;;5.70;99.90;;;;;;5132970;27;20019;-77
2023/12/13 09:44:52;;;;;;;7.22;4.22;;;5.80;99.90;;;;;;5133308;27;20031;-77
2023/12/13 09:47:21;;;;;;;6.15;3.47;;;5.70;99.90;;;;;;5132433;27;20456;-77
2023/12/13 09:49:48;;;;;;;5.65;3.42;;;5.80;99.90;;;;;;5132771;27;20031;-77
2023/12/13 09:52:19;;;;;;;7.28;3.50;;;5.80;99.90;;;;;;5132256;27;20031;-78
2023/12/13 09:54:46;;;;;;;9.30;3.42;;;5.90;99.90;;;;;;5132867;27;20031;-78
2023/12/13 09:57:12;;;;;;;3.42;3.10;;;5.90;99.90;;;;;;5132349;27;20075;-78
2023/12/13 09:59:38;;;;;;;4.05;3.25;;;5.90;99.90;;;;;;5132528;27;20519;-78
2023/12/13 10:02:11;;;;;;;6.82;3.33;;;6.00;99.90;;;;;;5131886;27;20035;-76
2023/12/13 10:04:38;;;;;;;6.15;2.80;;;6.00;99.90;;;;;;5133126;27;20045;-77
2023/12/13 10:07:06;;;;;;;4.10;2.88;;;6.00;99.90;;;;;;5132134;27;20413;-77
2023/12/13 10:09:32;;;;;;;3.85;2.40;;;6.10;99.90;;;;;;5132692;27;20035;-75
2023/12/13 10:12:01;;;;;;;5.60;3.03;;;6.10;99.90;;;;;;5131632;27;20481;-77
2023/12/13 10:14:29;;;;;;;5.45;2.47;;;6.10;99.90;;;;;;5132159;27;20030;-76
2023/12/13 10:16:56;;;;;;;5.53;2.15;;;6.10;99.90;;;;;;5132510;27;20023;-78
2023/12/13 10:19:22;;;;;;;3.60;2.40;;;6.20;99.90;;;;;;5113524;27;20410;-77
2023/12/13 10:21:48;;;;;;;6.20;2.40;;;6.20;99.90;;;;;;5132549;27;20026;-77
2023/12/13 10:24:15;;;;;;;3.30;2.03;;;6.20;99.90;;;;;;5131797;27;20506;-76
2023/12/13 10:26:41;;;;;;;3.28;1.60;;;6.20;99.90;;;;;;5132132;27;20027;-76
2023/12/13 10:29:07;;;;;;;7.30;2.00;;;6.30;99.90;;;;;;5132827;27;20116;-77
2023/12/13 10:31:33;;;;;;;5.50;1.98;;;6.20;99.90;;;;;;5132339;27;20477;-77
2023/12/13 10:33:59;;;;;;;4.15;1.90;;;6.30;99.90;;;;;;5131990;27;20084;-77
2023/12/13 10:36:26;;;;;;;5.32;2.17;;;6.30;99.90;;;;;;5133305;27;20417;-77
2023/12/13 10:38:56;;;;;;;3.17;1.73;;;6.40;99.90;;;;;;5132491;27;20076;-77
2023/12/13 10:41:26;;;;;;;6.40;2.17;;;6.40;99.90;;;;;;5132351;27;20023;-77
2023/12/13 10:43:57;;;;;;;6.57;1.90;;;6.50;99.90;;;;;;5132321;27;20133;-77
2023/12/13 10:46:27;;;;;;;4.88;1.60;;;6.50;99.90;;;;;;5131653;27;20444;-77
2023/12/13 10:48:54;;;;;;;6.10;1.88;;;6.60;99.90;;;;;;5132102;27;20031;-77
2023/12/13 10:51:22;;;;;;;7.55;1.77;;;6.60;99.90;;;;;;5131327;27;20023;-76
2023/12/13 10:53:48;;;;;;;10.93;1.98;;;6.70;99.90;;;;;;5131431;27;20375;-76
2023/12/13 10:56:18;;;;;;;6.10;1.80;;;6.70;99.90;;;;;;5130882;27;20373;-78
2023/12/13 10:58:46;;;;;;;4.97;1.75;;;6.70;99.90;;;;;;5130959;27;20336;-78
2023/12/13 11:01:14;;;;;;;5.43;1.40;;;6.80;99.90;;;;;;5131098;27;20152;-78
2023/12/13 11:03:51;;;;;;;3.42;1.52;;;6.80;99.90;;;;;;5131582;27;20027;-76
2023/12/13 11:06:17;;;;;;;5.32;1.55;;;6.80;99.90;;;;;;5131409;27;20033;-77
2023/12/13 11:08:44;;;;;;;2.15;1.27;;;6.90;99.90;;;;;;5113188;28;20080;-77
2023/12/13 11:11:13;;;;;;;2.13;1.17;;;6.90;99.90;;;;;;5131660;27;20023;-78
2023/12/13 11:13:49;;;;;;;6.22;1.80;;;6.90;99.90;;;;;;5113083;27;20023;-78
2023/12/13 11:16:25;;;;;;;1.88;1.50;;;6.90;99.90;;;;;;5131328;27;20023;-78
2023/12/13 11:18:53;;;;;;;3.40;1.40;;;7.00;99.90;;;;;;5131779;27;20054;-78
2023/12/13 11:21:27;;;;;;;5.78;1.60;;;7.00;99.90;;;;;;5131084;27;20038;-77
2023/12/13 11:24:00;;;;;;;5.60;1.65;;;7.10;99.90;;;;;;5131249;28;20038;-77
2023/12/13 11:26:32;;;;;;;3.40;1.60;;;7.00;99.90;;;;;;5111747;28;20450;-76
2023/12/13 11:28:59;;;;;;;5.00;1.17;;;7.10;99.90;;;;;;5131027;28;20122;-76
2023/12/13 11:31:26;;;;;;;4.15;1.48;;;7.10;99.90;;;;;;5130945;28;20105;-77
2023/12/13 11:33:56;;;;;;;3.65;1.40;;;7.20;99.90;;;;;;5131156;28;20031;-77
2023/12/13 11:36:24;;;;;;;4.88;1.35;;;7.20;99.90;;;;;;5131252;28;20612;-76
2023/12/13 11:38:54;;;;;;;3.92;1.40;;;7.20;99.90;;;;;;5131878;28;20070;-77
2023/12/13 11:41:20;;;;;;;1.17;0.98;;;7.30;99.90;;;;;;5131189;28;20039;-78
2023/12/13 11:43:46;;;;;;;6.07;2.13;;;7.30;99.90;;;;;;5131822;28;20032;-78
2023/12/13 11:46:13;;;;;;;3.85;1.58;;;7.30;99.90;;;;;;5130726;28;20042;-78
2023/12/13 11:48:39;;;;;;;3.47;1.20;;;7.30;99.90;;;;;;5130960;28;20070;-78
2023/12/13 11:51:05;;;;;;;4.97;1.17;;;7.30;99.90;;;;;;5130269;28;20448;-79
2023/12/13 11:53:32;;;;;;;5.00;1.83;;;7.30;99.90;;;;;;5131401;28;20073;-78
2023/12/13 11:55:58;;;;;;;4.82;1.40;;;7.30;99.90;;;;;;5131729;28;20091;-78
2023/12/13 11:58:28;;;;;;;4.47;1.50;;;7.40;99.90;;;;;;5130452;28;20134;-78
2023/12/13 12:00:54;;;;;;;2.58;1.38;;;7.40;99.90;;;;;;5131336;28;20158;-78
2023/12/13 12:03:20;;;;;;;6.28;1.70;;;7.40;99.90;;;;;;5130264;28;20088;-79
2023/12/13 12:05:47;;;;;;;6.43;1.58;;;7.40;99.90;;;;;;5131130;28;20023;-78
2023/12/13 12:08:12;;;;;;;5.68;1.40;;;7.50;99.90;;;;;;5130654;28;20039;-78
2023/12/13 12:10:40;;;;;;;5.18;1.75;;;7.50;99.90;;;;;;5131351;28;20474;-78
2023/12/13 12:13:06;;;;;;;6.75;1.27;;;7.60;99.90;;;;;;5131184;28;20501;-79
2023/12/13 12:15:31;;;;;;;2.80;1.48;;;7.50;99.90;;;;;;5131419;28;20110;-78
2023/12/13 12:18:00;;;;;;;3.03;1.30;;;7.60;99.90;;;;;;5130835;28;20456;-78
2023/12/13 12:20:26;;;;;;;4.07;1.35;;;7.50;99.90;;;;;;5130543;28;20020;-79
2023/12/13 12:22:52;;;;;;;6.07;1.55;;;7.50;99.90;;;;;;5131074;28;20026;-78
2023/12/13 12:25:20;;;;;;;4.40;1.58;;;7.50;99.90;;;;;;5130866;28;20051;-78
2023/12/13 12:27:48;;;;;;;3.03;1.40;;;7.50;99.90;;;;;;5130862;28;20169;-78
2023/12/13 12:30:17;;;;;;;6.05;1.67;;;7.50;99.90;;;;;;5130253;28;20114;-79
2023/12/13 12:32:44;;;;;;;4.40;1.20;;;7.50;99.90;;;;;;5131389;28;20019;-77
2023/12/13 12:35:09;;;;;;;4.88;1.73;;;7.50;99.90;;;;;;5111924;28;20425;-78
2023/12/13 12:37:35;;;;;;;2.72;1.73;;;7.60;99.90;;;;;;5132080;27;20036;-78
2023/12/13 12:40:08;;;;;;;2.22;1.20;;;7.60;99.90;;;;;;5134491;27;20084;-78
2023/12/13 12:42:34;;;;;;;;;;;7.60;99.90;;;;;;5135164;27;20046;-77
2023/12/13 12:45:00;;;;;;;5.35;1.63;;;7.60;99.90;;;;;;5134714;27;20304;-76
2023/12/13 12:47:26;;;;;;;7.72;2.00;;;7.60;99.90;;;;;;5134249;27;20558;-76
2023/12/13 12:49:52;;;;;;;4.55;1.55;;;7.60;99.90;;;;;;5133983;27;20039;-77
2023/12/13 12:52:19;;;;;;;3.47;1.40;;;7.60;99.90;;;;;;5133725;27;20096;-78
2023/12/13 12:54:45;;;;;;;3.85;1.70;;;7.60;99.90;;;;;;5134075;27;20034;-77